createdAt,value
2023-08-12T00:01:31.789Z,5.32
2023-08-12T00:04:01.484Z,3.70
2023-08-12T00:06:31.447Z,3.80
2023-08-12T00:09:01.175Z,5.13
2023-08-12T00:11:30.824Z,3.25
2023-08-12T00:14:00.591Z,9.20
2023-08-12T00:16:30.950Z,2.85
2023-08-12T00:19:01.031Z,4.05
2023-08-12T00:21:30.683Z,3.33
2023-08-12T00:24:00.326Z,4.88
2023-08-12T00:26:30.070Z,3.00
2023-08-12T00:28:59.727Z,5.43
2023-08-12T00:31:29.348Z,6.30
2023-08-12T00:33:58.957Z,3.75
2023-08-12T00:36:28.613Z,4.93
2023-08-12T00:38:58.360Z,3.42
2023-08-12T00:41:27.953Z,3.65
2023-08-12T00:43:57.622Z,5.80
2023-08-12T00:46:27.690Z,6.93
2023-08-12T00:48:57.649Z,4.35
2023-08-12T00:51:27.374Z,5.85
2023-08-12T00:53:57.665Z,4.78
2023-08-12T00:56:28.817Z,8.00
2023-08-12T00:58:58.616Z,4.32
2023-08-12T01:01:28.483Z,3.30
2023-08-12T01:03:58.177Z,4.60
2023-08-12T01:06:28.473Z,4.53
2023-08-12T01:08:58.286Z,4.82
2023-08-12T01:12:06.555Z,3.35
2023-08-12T01:14:55.914Z,4.63
2023-08-12T01:17:25.899Z,5.00
2023-08-12T01:19:56.230Z,5.35
2023-08-12T01:22:29.092Z,7.05
2023-08-12T01:24:58.878Z,5.82
2023-08-12T01:27:28.532Z,4.22
2023-08-12T01:29:58.250Z,8.35
2023-08-12T01:32:58.038Z,9.32
2023-08-12T01:35:34.722Z,5.90
2023-08-12T01:38:08.784Z,8.00
2023-08-12T01:40:41.222Z,7.63
2023-08-12T01:43:11.239Z,9.13
2023-08-12T01:45:41.508Z,5.72
2023-08-12T01:48:11.130Z,6.10
2023-08-12T01:50:40.730Z,8.98
2023-08-12T01:53:10.312Z,7.15
2023-08-12T01:55:39.891Z,7.88
2023-08-12T01:58:09.514Z,6.40
2023-08-12T02:00:39.334Z,7.32
2023-08-12T02:03:09.690Z,9.20
2023-08-12T02:05:43.871Z,9.52
2023-08-12T02:08:13.526Z,8.25
2023-08-12T02:10:43.158Z,10.50
2023-08-12T02:13:12.975Z,6.82
2023-08-12T02:15:42.592Z,7.10
2023-08-12T02:18:12.228Z,8.15
2023-08-12T02:20:43.376Z,7.90
2023-08-12T02:23:12.994Z,6.25
2023-08-12T02:25:42.688Z,8.75
2023-08-12T02:28:12.326Z,6.45
2023-08-12T02:30:41.964Z,6.63
2023-08-12T02:33:11.689Z,8.80
2023-08-12T02:35:41.954Z,6.45
2023-08-12T02:38:11.566Z,9.52
2023-08-12T02:40:41.178Z,9.38
2023-08-12T02:43:13.009Z,11.93
2023-08-12T02:45:42.692Z,6.85
2023-08-12T02:48:15.729Z,7.38
2023-08-12T02:50:45.508Z,8.32
2023-08-12T02:53:15.125Z,10.20
2023-08-12T02:55:44.844Z,7.05
2023-08-12T02:58:14.503Z,9.73
2023-08-12T03:00:47.355Z,8.80
2023-08-12T03:03:17.105Z,6.07
2023-08-12T03:05:50.224Z,5.82
2023-08-12T03:08:19.884Z,6.03
2023-08-12T03:10:49.518Z,7.35
2023-08-12T03:13:19.095Z,6.43
2023-08-12T03:15:48.772Z,7.22
2023-08-12T03:18:18.456Z,7.95
2023-08-12T03:20:48.038Z,6.35
2023-08-12T03:23:18.176Z,7.05
2023-08-12T03:25:49.841Z,6.97
2023-08-12T03:28:20.155Z,6.47
2023-08-12T03:30:56.942Z,6.82
2023-08-12T03:33:26.748Z,5.97
2023-08-12T03:35:56.388Z,7.88
2023-08-12T03:38:26.047Z,8.25
2023-08-12T03:40:55.678Z,7.78
2023-08-12T03:43:25.270Z,7.50
2023-08-12T03:45:54.916Z,6.50
2023-08-12T03:48:24.597Z,8.38
2023-08-12T03:50:54.298Z,7.07
2023-08-12T03:53:24.002Z,8.90
2023-08-12T03:55:53.677Z,10.85
2023-08-12T03:58:23.293Z,6.35
2023-08-12T04:00:52.957Z,6.72
2023-08-12T04:03:22.710Z,7.70
2023-08-12T04:05:55.955Z,8.77
2023-08-12T04:08:27.373Z,9.90
2023-08-12T04:10:57.352Z,9.40
2023-08-12T04:13:27.018Z,8.27
2023-08-12T04:15:56.771Z,7.25
2023-08-12T04:18:26.563Z,9.93
2023-08-12T04:20:56.514Z,10.18
2023-08-12T04:23:26.505Z,8.85
2023-08-12T04:25:59.509Z,8.15
2023-08-12T04:28:29.145Z,9.73
2023-08-12T04:30:58.754Z,10.98
2023-08-12T04:33:28.383Z,9.82
2023-08-12T04:35:58.018Z,10.25
2023-08-12T04:38:28.283Z,10.30
2023-08-12T04:40:58.030Z,9.35
2023-08-12T04:43:27.750Z,11.25
2023-08-12T04:45:57.523Z,11.93
2023-08-12T04:48:27.130Z,12.00
2023-08-12T04:50:57.206Z,10.77
2023-08-12T04:53:26.844Z,10.52
2023-08-12T04:55:58.569Z,10.68
2023-08-12T04:58:28.619Z,9.57
2023-08-12T05:00:58.362Z,8.85
2023-08-12T05:03:28.171Z,11.40
2023-08-12T05:05:57.775Z,10.05
2023-08-12T05:08:27.412Z,10.75
2023-08-12T05:10:57.402Z,11.65
2023-08-12T05:13:27.441Z,14.13
2023-08-12T05:15:57.118Z,10.20
2023-08-12T05:18:27.150Z,12.05
2023-08-12T05:20:56.811Z,9.98
2023-08-12T05:23:26.486Z,10.38
2023-08-12T05:25:56.159Z,12.35
2023-08-12T05:28:25.778Z,9.93
2023-08-12T05:30:57.535Z,12.70
2023-08-12T05:33:27.258Z,11.70
2023-08-12T05:35:56.951Z,14.75
2023-08-12T05:38:26.639Z,12.40
2023-08-12T05:40:56.700Z,10.77
2023-08-12T05:43:26.353Z,15.65
2023-08-12T05:45:56.019Z,11.85
2023-08-12T05:48:25.723Z,9.45
2023-08-12T05:50:55.334Z,12.65
2023-08-12T05:53:25.794Z,11.38
2023-08-12T05:55:55.432Z,14.10
2023-08-12T05:58:25.099Z,13.95
2023-08-12T06:00:55.020Z,16.73
2023-08-12T06:03:24.743Z,13.98
2023-08-12T06:05:54.421Z,11.80
2023-08-12T06:08:24.158Z,11.55
2023-08-12T06:10:53.773Z,12.02
2023-08-12T06:13:23.370Z,12.45
2023-08-12T06:15:53.028Z,12.02
2023-08-12T06:18:22.688Z,14.15
2023-08-12T06:20:52.332Z,10.43
2023-08-12T06:23:22.020Z,12.20
2023-08-12T06:25:51.657Z,11.60
2023-08-12T06:28:21.269Z,9.45
2023-08-12T06:30:51.293Z,11.57
2023-08-12T06:33:20.933Z,11.70
2023-08-12T06:35:51.312Z,13.75
2023-08-12T06:38:21.198Z,10.88
2023-08-12T06:40:51.000Z,13.25
2023-08-12T06:43:20.729Z,14.85
2023-08-12T06:45:50.414Z,15.25
2023-08-12T06:48:20.025Z,13.60
2023-08-12T06:50:55.527Z,12.00
2023-08-12T06:53:25.625Z,14.73
2023-08-12T06:55:55.312Z,14.88
2023-08-12T06:58:24.986Z,13.02
2023-08-12T07:00:55.835Z,11.88
2023-08-12T07:03:26.241Z,16.52
2023-08-12T07:05:57.366Z,11.10
2023-08-12T07:08:27.250Z,12.88
2023-08-12T07:10:57.211Z,11.40
2023-08-12T07:13:26.842Z,13.70
2023-08-12T07:15:56.543Z,14.93
2023-08-12T07:18:26.285Z,15.40
2023-08-12T07:20:55.944Z,18.33
2023-08-12T07:23:25.668Z,13.73
2023-08-12T07:25:55.610Z,10.93
2023-08-12T07:28:25.244Z,17.70
2023-08-12T07:30:54.997Z,18.00
2023-08-12T07:33:24.716Z,15.93
2023-08-12T07:35:54.329Z,15.98
2023-08-12T07:38:24.065Z,12.80
2023-08-12T07:40:54.085Z,12.32
2023-08-12T07:43:24.254Z,14.02
2023-08-12T07:46:07.703Z,16.88
2023-08-12T07:48:39.334Z,17.90
2023-08-12T07:51:09.807Z,13.43
2023-08-12T07:53:39.417Z,13.25
2023-08-12T07:56:09.177Z,13.20
2023-08-12T07:58:38.782Z,15.13
2023-08-12T08:01:08.867Z,10.65
2023-08-12T08:03:38.508Z,12.68
2023-08-12T08:06:08.163Z,13.15
2023-08-12T08:08:37.919Z,15.98
2023-08-12T08:11:07.910Z,16.98
2023-08-12T08:13:37.542Z,15.23
2023-08-12T08:16:07.308Z,16.08
2023-08-12T08:18:37.062Z,14.57
2023-08-12T08:21:06.792Z,12.75
2023-08-12T08:23:36.858Z,15.73
2023-08-12T08:26:06.496Z,15.10
2023-08-12T08:28:36.894Z,17.98
2023-08-12T08:31:06.882Z,19.65
2023-08-12T08:33:36.505Z,11.02
2023-08-12T08:36:06.315Z,16.27
2023-08-12T08:38:36.013Z,13.52
2023-08-12T08:41:08.879Z,13.43
2023-08-12T08:43:39.856Z,15.32
2023-08-12T08:46:10.250Z,15.25
2023-08-12T08:48:41.172Z,12.38
2023-08-12T08:51:13.665Z,15.30
2023-08-12T08:53:45.725Z,13.13
2023-08-12T08:56:16.127Z,12.27
2023-08-12T08:58:46.267Z,11.93
2023-08-12T09:01:17.790Z,11.35
2023-08-12T09:03:49.130Z,16.42
2023-08-12T09:06:19.161Z,11.30
2023-08-12T09:08:51.397Z,10.73
2023-08-12T09:11:22.574Z,12.20
2023-08-12T09:13:52.323Z,12.63
2023-08-12T09:16:22.293Z,13.07
2023-08-12T09:19:01.126Z,11.60
2023-08-12T09:21:30.734Z,10.98
2023-08-12T09:24:05.425Z,15.57
2023-08-12T09:26:35.095Z,14.27
2023-08-12T09:29:04.763Z,16.25
2023-08-12T09:31:35.097Z,14.07
2023-08-12T09:34:11.705Z,10.85
2023-08-12T09:36:41.438Z,13.25
2023-08-12T09:39:11.439Z,11.38
2023-08-12T09:41:42.161Z,11.63
2023-08-12T09:44:12.363Z,11.65
2023-08-12T09:46:41.985Z,12.15
2023-08-12T09:49:12.136Z,12.40
2023-08-12T09:51:44.754Z,13.95
2023-08-12T09:54:17.416Z,10.57
2023-08-12T09:56:51.918Z,10.43
2023-08-12T09:59:25.874Z,10.60
2023-08-12T10:01:59.029Z,10.43
2023-08-12T10:04:32.644Z,13.02
2023-08-12T10:07:03.652Z,12.30
2023-08-12T10:09:34.743Z,9.75
2023-08-12T10:12:05.407Z,14.98
2023-08-12T10:14:35.474Z,10.82
2023-08-12T10:17:06.433Z,12.23
2023-08-12T10:19:38.153Z,11.70
2023-08-12T10:22:08.493Z,16.42
2023-08-12T10:24:39.570Z,14.65
2023-08-12T10:27:09.426Z,11.88
2023-08-12T10:29:39.134Z,12.40
2023-08-12T10:32:08.965Z,10.10
2023-08-12T10:34:39.441Z,11.32
2023-08-12T10:37:09.683Z,11.30
2023-08-12T10:39:39.558Z,11.82
2023-08-12T10:42:09.336Z,10.57
2023-08-12T10:44:54.462Z,11.60
2023-08-12T10:47:24.205Z,13.68
2023-08-12T10:49:56.066Z,8.45
2023-08-12T10:52:37.326Z,10.90
2023-08-12T10:55:27.681Z,11.52
2023-08-12T10:58:01.224Z,13.07
2023-08-12T11:00:32.243Z,11.90
2023-08-12T11:03:02.045Z,10.85
2023-08-12T11:05:40.506Z,13.43
2023-08-12T11:08:10.201Z,10.93
2023-08-12T11:10:39.839Z,14.45
2023-08-12T11:13:09.587Z,16.65
2023-08-12T11:15:44.373Z,17.50
2023-08-12T11:18:19.866Z,9.73
2023-08-12T11:20:51.969Z,12.95
2023-08-12T11:23:23.178Z,11.52
2023-08-12T11:25:53.134Z,9.18
2023-08-12T11:28:22.789Z,12.68
2023-08-12T11:30:52.536Z,10.85
2023-08-12T11:33:23.446Z,15.73
2023-08-12T11:35:53.263Z,14.73
2023-08-12T11:38:22.966Z,13.63
2023-08-12T11:40:54.214Z,11.48
2023-08-12T11:43:26.767Z,13.02
2023-08-12T11:45:59.207Z,10.50
2023-08-12T11:48:30.968Z,14.23
2023-08-12T11:51:01.064Z,17.05
2023-08-12T11:53:30.995Z,12.48
2023-08-12T11:56:00.771Z,14.00
2023-08-12T11:58:51.232Z,15.23
2023-08-12T12:01:24.021Z,12.48
2023-08-12T12:03:57.623Z,12.20
2023-08-12T12:06:39.785Z,12.77
2023-08-12T12:09:15.478Z,16.17
2023-08-12T12:11:45.684Z,10.98
2023-08-12T12:14:15.653Z,17.58
2023-08-12T12:16:50.229Z,13.95
2023-08-12T12:19:21.387Z,11.32
2023-08-12T12:21:55.399Z,10.90
2023-08-12T12:24:25.237Z,14.48
2023-08-12T12:26:55.656Z,15.10
2023-08-12T12:29:25.631Z,15.00
2023-08-12T12:31:55.239Z,14.95
2023-08-12T12:34:25.296Z,14.98
2023-08-12T12:36:54.912Z,12.05
2023-08-12T12:39:25.769Z,14.63
2023-08-12T12:41:55.514Z,12.05
2023-08-12T12:44:25.391Z,11.75
2023-08-12T12:46:55.028Z,17.80
2023-08-12T12:49:24.684Z,19.77
2023-08-12T12:51:54.350Z,11.07
2023-08-12T12:54:24.010Z,13.82
2023-08-12T12:56:53.705Z,12.55
2023-08-12T12:59:23.311Z,17.20
2023-08-12T13:01:53.191Z,14.18
2023-08-12T13:04:22.958Z,15.02
2023-08-12T13:06:52.614Z,14.18
2023-08-12T13:09:22.288Z,14.57
2023-08-12T13:11:51.934Z,14.63
2023-08-12T13:14:23.685Z,14.38
2023-08-12T13:16:53.343Z,14.90
2023-08-12T13:19:22.968Z,16.75
2023-08-12T13:21:52.595Z,11.23
2023-08-12T13:24:22.885Z,16.52
2023-08-12T13:26:53.520Z,15.55
2023-08-12T13:29:23.282Z,18.48
2023-08-12T13:31:53.833Z,17.02
2023-08-12T13:34:23.518Z,13.68
2023-08-12T13:36:53.152Z,16.42
2023-08-12T13:39:23.363Z,13.48
2023-08-12T13:41:52.952Z,16.48
2023-08-12T13:44:22.580Z,13.23
2023-08-12T13:46:52.179Z,16.77
2023-08-12T13:49:21.853Z,18.98
2023-08-12T13:51:51.587Z,16.83
2023-08-12T13:54:21.288Z,15.00
2023-08-12T13:56:50.923Z,18.02
2023-08-12T13:59:20.612Z,12.68
2023-08-12T14:01:50.265Z,12.88
2023-08-12T14:04:19.895Z,14.13
2023-08-12T14:06:52.662Z,12.95
2023-08-12T14:09:22.739Z,13.60
2023-08-12T14:11:52.439Z,13.88
2023-08-12T14:14:22.105Z,15.20
2023-08-12T14:16:51.947Z,12.00
2023-08-12T14:19:21.709Z,12.68
2023-08-12T14:21:51.398Z,14.23
2023-08-12T14:24:21.100Z,11.88
2023-08-12T14:26:50.722Z,12.20
2023-08-12T14:29:20.338Z,17.13
2023-08-12T14:31:50.079Z,14.73
2023-08-12T14:34:19.702Z,11.00
2023-08-12T14:36:49.302Z,17.92
2023-08-12T14:39:18.916Z,13.25
2023-08-12T14:41:48.598Z,13.60
2023-08-12T14:44:18.428Z,14.35
2023-08-12T14:46:48.184Z,11.27
2023-08-12T14:49:17.808Z,16.27
2023-08-12T14:51:47.394Z,13.55
2023-08-12T14:54:17.028Z,10.70
2023-08-12T14:56:47.348Z,16.27
2023-08-12T14:59:16.988Z,12.77
2023-08-12T15:01:46.640Z,14.45
2023-08-12T15:04:16.352Z,16.00
2023-08-12T15:06:45.962Z,14.13
2023-08-12T15:09:15.813Z,13.65
2023-08-12T15:11:45.489Z,12.70
2023-08-12T15:14:15.123Z,17.80
2023-08-12T15:16:44.799Z,12.90
2023-08-12T15:19:14.386Z,15.60
2023-08-12T15:21:44.041Z,11.98
2023-08-12T15:24:13.665Z,13.98
2023-08-12T15:26:43.341Z,12.82
2023-08-12T15:29:13.042Z,20.98
2023-08-12T15:31:42.619Z,13.85
2023-08-12T15:34:12.293Z,13.13
2023-08-12T15:36:43.462Z,14.38
2023-08-12T15:39:13.988Z,17.75
2023-08-12T15:41:47.542Z,10.98
2023-08-12T15:44:18.488Z,15.68
2023-08-12T15:46:48.323Z,13.02
2023-08-12T15:49:17.981Z,12.30
2023-08-12T15:51:47.608Z,11.82
2023-08-12T15:54:17.225Z,14.25
2023-08-12T15:56:46.843Z,13.88
2023-08-12T15:59:16.422Z,15.88
2023-08-12T16:01:46.183Z,22.83
2023-08-12T16:04:15.892Z,15.57
2023-08-12T16:06:45.724Z,16.40
2023-08-12T16:09:19.401Z,16.80
2023-08-12T16:11:50.449Z,19.75
2023-08-12T16:14:20.056Z,12.10
2023-08-12T16:16:49.764Z,14.70
2023-08-12T16:19:19.423Z,14.45
2023-08-12T16:21:49.519Z,12.20
2023-08-12T16:24:19.095Z,17.80
2023-08-12T16:26:48.733Z,20.33
2023-08-12T16:29:19.594Z,17.73
2023-08-12T16:31:49.254Z,17.38
2023-08-12T16:34:18.908Z,12.45
2023-08-12T16:36:53.419Z,18.25
2023-08-12T16:39:28.437Z,21.88
2023-08-12T16:41:58.065Z,19.25
2023-08-12T16:44:27.657Z,16.75
2023-08-12T16:46:57.295Z,15.23
2023-08-12T16:49:26.920Z,17.92
2023-08-12T16:51:56.598Z,11.88
2023-08-12T16:54:26.182Z,17.08
2023-08-12T16:56:55.822Z,17.25
2023-08-12T16:59:25.458Z,15.45
2023-08-12T17:01:55.203Z,13.38
2023-08-12T17:04:24.802Z,13.38
2023-08-12T17:06:54.847Z,18.27
2023-08-12T17:09:24.758Z,17.83
2023-08-12T17:11:54.406Z,17.02
2023-08-12T17:14:24.163Z,13.30
2023-08-12T17:16:53.887Z,17.80
2023-08-12T17:19:23.713Z,16.95
2023-08-12T17:21:53.823Z,17.90
2023-08-12T17:24:23.405Z,12.85
2023-08-12T17:26:53.737Z,15.68
2023-08-12T17:29:23.514Z,16.30
2023-08-12T17:31:53.496Z,16.80
2023-08-12T17:34:23.130Z,16.08
2023-08-12T17:36:52.761Z,23.85
2023-08-12T17:39:22.535Z,19.55
2023-08-12T17:41:52.469Z,19.08
2023-08-12T17:44:22.129Z,17.20
2023-08-12T17:46:51.841Z,16.02
2023-08-12T17:49:21.582Z,16.77
2023-08-12T17:51:51.259Z,14.90
2023-08-12T17:54:20.902Z,19.48
2023-08-12T17:56:50.491Z,24.77
2023-08-12T17:59:20.141Z,19.45
2023-08-12T18:01:50.302Z,14.18
2023-08-12T18:04:19.961Z,12.25
2023-08-12T18:06:49.712Z,16.40
2023-08-12T18:09:21.154Z,17.08
2023-08-12T18:11:50.773Z,22.45
2023-08-12T18:14:23.837Z,14.23
2023-08-12T18:16:53.667Z,16.13
2023-08-12T18:19:23.395Z,17.98
2023-08-12T18:21:53.015Z,19.38
2023-08-12T18:24:22.860Z,12.90
2023-08-12T18:26:52.468Z,19.85
2023-08-12T18:29:22.167Z,16.23
2023-08-12T18:31:51.776Z,15.20
2023-08-12T18:34:21.414Z,11.70
2023-08-12T18:36:51.039Z,15.43
2023-08-12T18:39:20.758Z,14.00
2023-08-12T18:41:50.476Z,17.42
2023-08-12T18:44:20.235Z,13.68
2023-08-12T18:46:49.855Z,14.25
2023-08-12T18:49:19.559Z,17.25
2023-08-12T18:51:49.193Z,20.00
2023-08-12T18:54:18.785Z,16.52
2023-08-12T18:56:48.481Z,17.35
2023-08-12T18:59:18.098Z,17.40
2023-08-12T19:01:47.767Z,15.55
2023-08-12T19:04:17.387Z,22.63
2023-08-12T19:06:47.027Z,16.70
2023-08-12T19:09:18.716Z,20.98
2023-08-12T19:11:48.547Z,20.02
2023-08-12T19:14:18.263Z,19.38
2023-08-12T19:16:47.908Z,19.75
2023-08-12T19:19:18.635Z,22.05
2023-08-12T19:21:48.321Z,16.30
2023-08-12T19:24:17.977Z,22.02
2023-08-12T19:26:47.581Z,15.18
2023-08-12T19:29:17.159Z,20.77
2023-08-12T19:31:46.977Z,19.17
2023-08-12T19:34:16.698Z,18.70
2023-08-12T19:36:46.502Z,15.40
2023-08-12T19:39:16.161Z,16.30
2023-08-12T19:41:45.854Z,15.77
2023-08-12T19:44:15.446Z,17.35
2023-08-12T19:46:45.182Z,23.50
2023-08-12T19:49:14.849Z,16.35
2023-08-12T19:51:44.490Z,19.27
2023-08-12T19:54:14.128Z,18.30
2023-08-12T19:56:43.758Z,15.15
2023-08-12T19:59:13.696Z,22.70
2023-08-12T20:01:43.690Z,18.30
2023-08-12T20:04:13.373Z,19.48
2023-08-12T20:06:43.041Z,17.92
2023-08-12T20:09:12.688Z,20.50
2023-08-12T20:11:42.309Z,15.50
2023-08-12T20:14:12.072Z,21.15
2023-08-12T20:16:41.773Z,14.60
2023-08-12T20:19:12.101Z,15.25
2023-08-12T20:21:41.898Z,18.13
2023-08-12T20:24:11.530Z,16.88
2023-08-12T20:26:41.153Z,17.20
2023-08-12T20:29:10.831Z,15.00
2023-08-12T20:31:40.425Z,15.20
2023-08-12T20:34:10.120Z,16.38
2023-08-12T20:36:39.809Z,20.55
2023-08-12T20:39:11.298Z,18.85
2023-08-12T20:41:41.060Z,15.98
2023-08-12T20:44:10.686Z,20.10
2023-08-12T20:46:40.341Z,18.15
2023-08-12T20:49:10.069Z,21.70
2023-08-12T20:51:39.712Z,18.00
2023-08-12T20:54:09.326Z,17.48
2023-08-12T20:56:38.967Z,16.27
2023-08-12T20:59:08.610Z,19.30
2023-08-12T21:01:38.274Z,16.33
2023-08-12T21:04:08.420Z,18.92
2023-08-12T21:06:38.068Z,16.17
2023-08-12T21:09:08.423Z,27.63
2023-08-12T21:11:38.232Z,17.33
2023-08-12T21:14:07.970Z,17.23
2023-08-12T21:16:37.706Z,14.77
2023-08-12T21:19:07.366Z,16.55
2023-08-12T21:21:37.104Z,16.75
2023-08-12T21:24:06.946Z,23.10
2023-08-12T21:26:36.718Z,18.50
2023-08-12T21:29:06.785Z,18.33
2023-08-12T21:31:36.566Z,15.38
2023-08-12T21:34:06.294Z,16.13
2023-08-12T21:36:35.982Z,16.70
2023-08-12T21:39:07.621Z,15.52
2023-08-12T21:41:37.259Z,16.92
2023-08-12T21:44:08.120Z,14.00
2023-08-12T21:46:37.824Z,19.73
2023-08-12T21:49:07.503Z,18.90
2023-08-12T21:51:37.627Z,16.15
2023-08-12T21:54:07.495Z,17.60
2023-08-12T21:56:37.388Z,14.95
2023-08-12T21:59:07.104Z,15.60
2023-08-12T22:01:36.841Z,15.20
2023-08-12T22:04:06.712Z,14.70
2023-08-12T22:06:36.317Z,13.85
2023-08-12T22:09:06.371Z,16.08
2023-08-12T22:11:36.018Z,21.17
2023-08-12T22:14:05.714Z,18.20
2023-08-12T22:16:35.328Z,16.77
2023-08-12T22:19:05.172Z,19.85
2023-08-12T22:21:34.751Z,15.82
2023-08-12T22:24:04.397Z,16.15
2023-08-12T22:26:33.964Z,18.08
2023-08-12T22:29:03.595Z,19.02
2023-08-12T22:31:33.266Z,16.20
2023-08-12T22:34:04.044Z,20.35
2023-08-12T22:36:34.425Z,20.65
2023-08-12T22:39:04.133Z,16.15
2023-08-12T22:41:36.963Z,18.95
2023-08-12T22:44:06.999Z,22.02
2023-08-12T22:46:36.722Z,16.08
2023-08-12T22:49:06.583Z,15.38
2023-08-12T22:51:36.243Z,18.92
2023-08-12T22:54:07.012Z,13.15
2023-08-12T22:56:40.118Z,20.02
2023-08-12T22:59:09.743Z,15.52
2023-08-12T23:01:39.429Z,16.00
2023-08-12T23:04:09.331Z,18.60
2023-08-12T23:06:38.958Z,17.52
2023-08-12T23:09:08.643Z,21.90
2023-08-12T23:11:38.771Z,19.27
2023-08-12T23:14:08.635Z,19.25
2023-08-12T23:16:38.336Z,17.48
2023-08-12T23:19:10.211Z,20.55
2023-08-12T23:21:41.494Z,18.27
2023-08-12T23:24:11.186Z,18.17
2023-08-12T23:26:41.607Z,20.02
2023-08-12T23:29:11.257Z,22.63
2023-08-12T23:31:41.302Z,14.13
2023-08-12T23:34:10.977Z,16.35
2023-08-12T23:36:40.568Z,18.63
2023-08-12T23:39:12.286Z,17.30
2023-08-12T23:41:41.941Z,24.65
2023-08-12T23:44:12.040Z,20.30
2023-08-12T23:46:42.171Z,18.08
2023-08-12T23:49:11.854Z,23.52
2023-08-12T23:51:44.370Z,18.73
2023-08-12T23:54:14.030Z,19.63
2023-08-12T23:56:43.690Z,23.85
2023-08-12T23:59:13.315Z,20.10
